Hlavní strana
METAR-TAF:

METAR-TAF

Letiště :

Aktobe, Kazachstán

zeměpisná šířka: 50-17N, zeměpisná délka: 057-09E, výška: 227 m

Aktuální stav počasí

Zpráva byla vytvořena před 42 minutami, v 18:00 UTC
Severní vítr 8 kt
Teplota 21°C
Vlhkost vzduchu 49%
Tlak 1017 hPa
Viditelnost 10 km a více
Žádná oblačnost pod 1500 m, nevyskytují se cumulonimby.

METAR: UATT 251800Z 35004MPS CAVOK 21/10 Q1017 R30/70D NOSIG RMK QFE742/0990

Čas: 23:42 (18:42 UTC)

Předpověď počasí

Zpráva byla vytvořena před 1 hodinou a 41 minutami, v 17:01 UTC
Předpověď platná od 25 v 18 UTC do 26 v 18 UTC
Severní vítr 8 kt
Viditelnost 10 km a více
Žádná oblačnost pod 1500 m, nevyskytují se cumulonimby.
Dočasný
od 26 v 06 UTC do 26 v 18 UTC
Severoseverozápadní vítr 17 kt

TAF: UATT 251701Z 2518/2618 36004MPS CAVOK TX26/2611Z TN12/2600Z TEMPO 2606/2618 34009MPS

Stav a předpovědi počasí z více než 4 000 letišť (zprávy METAR a TAF).

Červené a žluté tečky na mapě představují dostupné meteorologické stanice.

Když kurzor umístíte na tečku, zobrazí se název stanice.

Pak kliknutím zobrazíte stav a předpověď počasí.

Chcete-li změnit mapu, kliknutím na zelené tlačítko se znaménkem +mapu přiblížíte, kliknutím na zelené tlačítko se znaménkem – mapu oddálíte a kliknutím na zelené šipky přejdete na sousední mapy.


METAR-TAF: